Time;durP1;ratioP1;P1;durP2;ratioP2;P2;SDS_P1;SDS_P2;PMS_P1;PMS_P2;Temp;Humidity;BMP_temperature;BMP_pressure;BME280_temperature;BME280_humidity;BME280_pressure;Samples;Min_cycle;Max_cycle;Signal;HPM_P1;HPM_P2
2023/12/12 00:02:26;;;;;;;;;;;;;;;6.18;100.00;99379.89;104951;1291;71492;-57
2023/12/12 00:05:13;;;;;;;;;;;;;;;6.18;100.00;99379.55;104900;1293;61269;-57
2023/12/12 00:08:00;;;;;;;;;;;;;;;6.18;100.00;99381.23;104954;1288;61752;-58
2023/12/12 00:10:46;;;;;;;;;;;;;;;6.19;100.00;99378.66;104898;1292;73216;-58
2023/12/12 00:13:32;;;;;;;;;;;;;;;6.19;100.00;99379.52;104934;1288;67208;-58
2023/12/12 00:16:18;;;;;;;;;;;;;;;6.20;100.00;99384.62;104948;1288;71259;-57
2023/12/12 00:19:04;;;;;;;;;;;;;;;6.21;100.00;99385.14;104931;1290;61135;-58
2023/12/12 00:21:50;;;;;;;;;;;;;;;6.22;100.00;99389.05;104860;1288;61215;-55
2023/12/12 00:24:36;;;;;;;;;;;;;;;6.23;100.00;99388.17;104819;1288;76795;-58
2023/12/12 00:27:23;;;;;;;;;;;;;;;6.24;100.00;99391.58;104842;1293;69158;-58
2023/12/12 00:30:09;;;;;;;;;;;;;;;6.26;100.00;99395.11;104772;1288;73233;-58
2023/12/12 00:32:55;;;;;;;;;;;;;;;6.27;100.00;99400.73;105859;1290;388392;-58
2023/12/12 00:35:41;;;;;;;;;;;;;;;6.29;100.00;99397.79;98944;1288;10002021;-58
2023/12/12 00:38:30;;;;;;;;;;;;;;;6.30;100.00;99398.10;106261;1288;71422;-58
2023/12/12 00:41:16;;;;;;;;;;;;;;;6.32;100.00;99400.81;106324;1288;59296;-58
2023/12/12 00:44:01;;;;;;;;;;;;;;;6.34;100.00;99403.52;106289;1288;58993;-58
2023/12/12 00:46:47;;;;;;;;;;;;;;;6.37;100.00;99401.59;106282;1288;75016;-58
2023/12/12 00:49:33;;;;;;;;;;;;;;;6.37;100.00;99398.67;106157;1288;68464;-58
2023/12/12 00:52:19;;;;;;;;;;;;;;;6.39;100.00;99402.73;106084;1290;164831;-58
2023/12/12 00:55:05;;;;;;;;;;;;;;;6.41;100.00;99404.41;106286;1288;58964;-58
2023/12/12 00:57:51;;;;;;;;;;;;;;;6.43;100.00;99407.46;105063;1292;61409;-58
2023/12/12 01:00:37;;;;;;;;;;;;;;;6.44;100.00;99412.41;104953;1292;73249;-58
2023/12/12 01:03:24;;;;;;;;;;;;;;;6.46;100.00;99418.37;104862;1288;70063;-57
2023/12/12 01:06:20;;;;;;;;;;;;;;;6.47;100.00;99421.60;104922;1293;71935;-56
2023/12/12 01:09:07;;;;;;;;;;;;;;;6.47;100.00;99421.27;104947;1289;61222;-58
2023/12/12 01:11:53;;;;;;;;;;;;;;;6.48;100.00;99425.52;104872;1288;61291;-58
2023/12/12 01:14:39;;;;;;;;;;;;;;;6.48;100.00;99432.02;104933;1288;75942;-58
2023/12/12 01:17:26;;;;;;;;;;;;;;;6.49;100.00;99433.03;104949;1288;67620;-56
2023/12/12 01:20:13;;;;;;;;;;;;;;;6.49;100.00;99435.08;104941;1292;72982;-57
2023/12/12 01:22:59;;;;;;;;;;;;;;;6.50;100.00;99437.80;104852;1293;62080;-57
2023/12/12 01:25:45;;;;;;;;;;;;;;;6.51;100.00;99439.33;105001;1289;61172;-57
2023/12/12 01:28:31;;;;;;;;;;;;;;;6.52;100.00;99441.02;104965;1288;73325;-58
2023/12/12 01:31:18;;;;;;;;;;;;;;;6.52;100.00;99439.30;104928;1288;67678;-54
2023/12/12 01:34:04;;;;;;;;;;;;;;;6.53;100.00;99441.17;104856;1288;71226;-58
2023/12/12 01:36:50;;;;;;;;;;;;;;;6.54;100.00;99441.33;104918;1292;60057;-57
2023/12/12 01:39:36;;;;;;;;;;;;;;;6.55;100.00;99440.96;104920;1290;61193;-57
2023/12/12 01:42:23;;;;;;;;;;;;;;;6.56;100.00;99443.34;104952;1288;78250;-58
2023/12/12 01:45:09;;;;;;;;;;;;;;;6.57;100.00;99445.73;104940;1292;70016;-58
2023/12/12 01:47:55;;;;;;;;;;;;;;;6.58;100.00;99447.23;104949;1288;72427;-56
2023/12/12 01:50:42;;;;;;;;;;;;;;;6.59;100.00;99449.10;105015;1288;61173;-58
2023/12/12 01:53:30;;;;;;;;;;;;;;;6.60;100.00;99451.48;105823;1288;59905;-58
2023/12/12 01:56:17;;;;;;;;;;;;;;;6.61;100.00;99451.46;104994;1292;73253;-56
2023/12/12 01:59:04;;;;;;;;;;;;;;;6.63;100.00;99453.65;104974;1288;70501;-56
2023/12/12 02:01:51;;;;;;;;;;;;;;;6.63;100.00;99453.14;105817;1290;71390;-58
2023/12/12 02:04:38;;;;;;;;;;;;;;;6.64;100.00;99457.75;106271;1288;59164;-58
2023/12/12 02:07:24;;;;;;;;;;;;;;;6.63;100.00;99459.98;106276;1288;58989;-58
2023/12/12 02:10:10;;;;;;;;;;;;;;;6.64;100.00;99463.23;106264;1289;74506;-58
2023/12/12 02:12:56;;;;;;;;;;;;;;;6.65;100.00;99466.64;105877;1287;67373;-57
2023/12/12 02:15:42;;;;;;;;;;;;;;;6.66;100.00;99468.52;104915;1292;71241;-58
2023/12/12 02:18:29;;;;;;;;;;;;;;;6.66;100.00;99474.33;104904;1292;61808;-57
2023/12/12 02:21:19;;;;;;;;;;;;;;;6.66;100.00;99474.84;104986;1290;61192;-58
2023/12/12 02:24:05;;;;;;;;;;;;;;;6.66;100.00;99481.69;104923;1288;73287;-58
2023/12/12 02:26:51;;;;;;;;;;;;;;;6.64;100.00;99485.83;104913;1292;67297;-56
2023/12/12 02:29:38;;;;;;;;;;;;;;;6.63;100.00;99486.53;104916;1288;71094;-57
2023/12/12 02:32:24;;;;;;;;;;;;;;;6.64;100.00;99489.77;104981;1292;61247;-58
2023/12/12 02:35:10;;;;;;;;;;;;;;;6.63;100.00;99499.54;104926;1292;59624;-57
2023/12/12 02:37:57;;;;;;;;;;;;;;;6.61;100.00;99506.77;104923;1288;74015;-58
2023/12/12 02:40:43;;;;;;;;;;;;;;;6.57;100.00;99531.16;104954;1292;67900;-57
2023/12/12 02:43:29;;;;;;;;;;;;;;;6.44;100.00;99545.77;104896;1292;71229;-57
2023/12/12 02:46:15;;;;;;;;;;;;;;;6.23;100.00;99560.32;104962;1291;62287;-57
2023/12/12 02:49:01;;;;;;;;;;;;;;;6.04;100.00;99576.52;104881;1292;61159;-58
2023/12/12 02:51:48;;;;;;;;;;;;;;;5.87;100.00;99589.90;104918;1290;77345;-58
2023/12/12 02:54:34;;;;;;;;;;;;;;;5.73;100.00;99600.52;104926;1292;69968;-57
2023/12/12 02:57:22;;;;;;;;;;;;;;;5.61;100.00;99611.97;104955;1294;71133;-57
2023/12/12 03:00:09;;;;;;;;;;;;;;;5.50;100.00;99613.12;104886;1288;61249;-56
2023/12/12 03:02:55;;;;;;;;;;;;;;;5.41;100.00;99623.48;104979;1289;61577;-57
2023/12/12 03:05:41;;;;;;;;;;;;;;;5.31;100.00;99632.80;104900;1288;73252;-57
2023/12/12 03:08:27;;;;;;;;;;;;;;;5.22;100.00;99640.59;104879;1291;70055;-58
2023/12/12 03:11:14;;;;;;;;;;;;;;;5.14;100.00;99648.03;104950;1288;71170;-57
2023/12/12 03:14:00;;;;;;;;;;;;;;;5.10;100.00;99660.54;104975;1288;61281;-57
2023/12/12 03:16:47;;;;;;;;;;;;;;;5.05;100.00;99669.98;104929;1301;61179;-58
2023/12/12 03:19:33;;;;;;;;;;;;;;;4.99;100.00;99684.03;104892;1286;73071;-58
2023/12/12 03:22:19;;;;;;;;;;;;;;;4.96;100.00;99691.41;104894;1288;70036;-57
2023/12/12 03:25:07;;;;;;;;;;;;;;;4.91;100.00;99695.20;104935;1288;71169;-56
2023/12/12 03:27:53;;;;;;;;;;;;;;;4.85;100.00;99698.33;106207;1289;59212;-58
2023/12/12 03:30:40;;;;;;;;;;;;;;;4.74;100.00;99700.95;104981;1290;60387;-57
2023/12/12 03:33:26;;;;;;;;;;;;;;;4.63;100.00;99705.50;104900;1290;73604;-58
2023/12/12 03:36:13;;;;;;;;;;;;;;;4.56;100.00;99712.04;104945;1292;67722;-56
2023/12/12 03:38:59;;;;;;;;;;;;;;;4.50;100.00;99722.82;106241;1288;71518;-58
2023/12/12 03:41:45;;;;;;;;;;;;;;;4.45;100.00;99728.48;104968;1286;63357;-57
2023/12/12 03:44:31;;;;;;;;;;;;;;;4.41;100.00;99736.36;104994;1293;61176;-58
2023/12/12 03:47:18;;;;;;;;;;;;;;;4.35;100.00;99743.20;104964;1292;76045;-58
2023/12/12 03:50:06;;;;;;;;;;;;;;;4.28;100.00;99746.48;104946;1288;67237;-58
2023/12/12 03:52:52;;;;;;;;;;;;;;;4.24;100.00;99750.92;104957;1292;72370;-58
2023/12/12 03:55:38;;;;;;;;;;;;;;;4.19;100.00;99753.51;104968;1288;61216;-58
2023/12/12 03:58:25;;;;;;;;;;;;;;;4.15;100.00;99754.41;104931;1288;61137;-55
2023/12/12 04:01:11;;;;;;;;;;;;;;;4.12;100.00;99762.94;104938;1288;74369;-57
2023/12/12 04:03:57;;;;;;;;;;;;;;;4.11;100.00;99764.83;104904;1292;69093;-56
2023/12/12 04:06:47;;;;;;;;;;;;;;;4.09;100.00;99766.88;104904;1288;73954;-57
2023/12/12 04:09:33;;;;;;;;;;;;;;;4.08;100.00;99770.98;104960;1288;61342;-57
2023/12/12 04:12:19;;;;;;;;;;;;;;;4.07;100.00;99777.63;104996;1288;61738;-56
2023/12/12 04:15:06;;;;;;;;;;;;;;;4.06;100.00;99780.86;104909;1289;75042;-58
2023/12/12 04:17:52;;;;;;;;;;;;;;;4.06;100.00;99786.33;104957;1292;73115;-57
2023/12/12 04:20:38;;;;;;;;;;;;;;;4.05;100.00;99790.08;104900;1288;74143;-57
2023/12/12 04:23:25;;;;;;;;;;;;;;;4.04;100.00;99790.77;104933;1288;61228;-57
2023/12/12 04:26:12;;;;;;;;;;;;;;;4.01;100.00;99787.02;104959;1290;61132;-55
2023/12/12 04:28:59;;;;;;;;;;;;;;;4.03;100.00;99794.86;104927;1288;75155;-57
2023/12/12 04:31:48;;;;;;;;;;;;;;;4.02;100.00;99798.95;104927;1286;67039;-56
2023/12/12 04:34:34;;;;;;;;;;;;;;;4.01;100.00;99801.02;104948;1290;71353;-58
2023/12/12 04:37:20;;;;;;;;;;;;;;;4.01;100.00;99805.95;104954;1288;61196;-56
2023/12/12 04:40:07;;;;;;;;;;;;;;;4.01;100.00;99802.38;104941;1288;61454;-56
2023/12/12 04:42:53;;;;;;;;;;;;;;;4.01;100.00;99805.61;104992;1288;73181;-57
2023/12/12 04:45:40;;;;;;;;;;;;;;;4.02;100.00;99802.88;104904;1292;69279;-57
2023/12/12 04:48:29;;;;;;;;;;;;;;;4.02;100.00;99803.91;104888;1289;72197;-58
2023/12/12 04:51:15;;;;;;;;;;;;;;;4.03;100.00;99809.20;104927;1288;61194;-58
2023/12/12 04:54:01;;;;;;;;;;;;;;;4.03;100.00;99816.35;104917;1293;60739;-57
2023/12/12 04:56:48;;;;;;;;;;;;;;;4.03;100.00;99819.92;104904;1288;76397;-57
2023/12/12 04:59:34;;;;;;;;;;;;;;;4.05;100.00;99819.08;104926;1292;69194;-56
2023/12/12 05:02:20;;;;;;;;;;;;;;;4.05;100.00;99822.65;104902;1291;71239;-57
2023/12/12 05:05:07;;;;;;;;;;;;;;;4.06;100.00;99824.70;104916;1289;61264;-57
2023/12/12 05:07:53;;;;;;;;;;;;;;;4.07;100.00;99824.70;104957;1288;61264;-58
2023/12/12 05:10:39;;;;;;;;;;;;;;;4.09;100.00;99831.69;104954;1290;73140;-57
2023/12/12 05:13:25;;;;;;;;;;;;;;;4.09;100.00;99835.10;104961;1286;67846;-57
2023/12/12 05:16:13;;;;;;;;;;;;;;;4.09;100.00;99840.73;104893;1287;71260;-57
2023/12/12 05:18:59;;;;;;;;;;;;;;;4.09;100.00;99845.16;105893;1288;59246;-57
2023/12/12 05:21:45;;;;;;;;;;;;;;;4.09;100.00;99846.02;104933;1288;61304;-57
2023/12/12 05:24:32;;;;;;;;;;;;;;;4.09;100.00;99854.88;104894;1289;72224;-58
2023/12/12 05:27:18;;;;;;;;;;;;;;;4.10;100.00;99860.17;104846;1286;70787;-57
2023/12/12 05:30:04;;;;;;;;;;;;;;;4.09;100.00;99861.19;104871;1288;71184;-57
2023/12/12 05:32:50;;;;;;;;;;;;;;;4.08;100.00;99864.77;106239;1288;59142;-58
2023/12/12 05:35:36;;;;;;;;;;;;;;;4.09;100.00;99855.39;106302;1288;59248;-59
2023/12/12 05:38:23;;;;;;;;;;;;;;;4.09;100.00;99856.92;106292;1288;73387;-58
2023/12/12 05:41:09;;;;;;;;;;;;;;;4.10;100.00;99857.27;105105;1289;68546;-58
2023/12/12 05:43:55;;;;;;;;;;;;;;;4.11;100.00;99863.23;104892;1288;74005;-56
2023/12/12 05:46:42;;;;;;;;;;;;;;;4.10;100.00;99868.01;104933;1288;61288;-58
2023/12/12 05:49:28;;;;;;;;;;;;;;;4.11;100.00;99875.52;104935;1288;61173;-58
2023/12/12 05:52:15;;;;;;;;;;;;;;;4.11;100.00;99883.02;104917;1289;73258;-56
2023/12/12 05:55:05;;;;;;;;;;;;;;;4.09;100.00;99891.89;104960;1288;68137;-57
2023/12/12 05:57:51;;;;;;;;;;;;;;;4.09;100.00;99898.02;104961;1291;72269;-57
2023/12/12 06:00:39;;;;;;;;;;;;;;;4.08;100.00;99897.86;104840;1289;61718;-57
2023/12/12 06:03:26;;;;;;;;;;;;;;;4.08;100.00;99902.29;104903;1288;61186;-58
2023/12/12 06:06:12;;;;;;;;;;;;;;;4.08;100.00;99903.99;104999;1288;78895;-57
2023/12/12 06:08:59;;;;;;;;;;;;;;;4.07;100.00;99909.80;104866;1288;70865;-58
2023/12/12 06:11:45;;;;;;;;;;;;;;;4.05;100.00;99922.42;104919;1288;70387;-56
2023/12/12 06:14:31;;;;;;;;;;;;;;;4.03;100.00;99922.25;104904;1288;60700;-57
2023/12/12 06:17:17;;;;;;;;;;;;;;;4.02;100.00;99921.91;104986;1288;59770;-58
2023/12/12 06:20:04;;;;;;;;;;;;;;;4.04;100.00;99924.30;104855;1292;75062;-58
2023/12/12 06:22:50;;;;;;;;;;;;;;;4.03;100.00;99924.63;104636;1288;69810;-56
2023/12/12 06:25:37;;;;;;;;;;;;;;;4.02;100.00;99929.59;104874;1292;73031;-58
2023/12/12 06:28:23;;;;;;;;;;;;;;;4.00;100.00;99935.39;104930;1288;61245;-58
2023/12/12 06:31:09;;;;;;;;;;;;;;;3.98;100.00;99936.40;104915;1288;61243;-57
2023/12/12 06:33:56;;;;;;;;;;;;;;;3.95;100.00;99935.72;104866;1288;73352;-59
2023/12/12 06:36:42;;;;;;;;;;;;;;;3.94;100.00;99937.44;104809;1288;71334;-58
2023/12/12 06:39:28;;;;;;;;;;;;;;;3.93;100.00;99941.69;104892;1288;71402;-58
2023/12/12 06:42:14;;;;;;;;;;;;;;;3.91;100.00;99943.05;104870;1292;59336;-58
2023/12/12 06:45:01;;;;;;;;;;;;;;;3.89;100.00;99942.38;104831;1288;61187;-56
2023/12/12 06:47:47;;;;;;;;;;;;;;;3.85;100.00;99950.89;104915;1288;73161;-58
2023/12/12 06:50:34;;;;;;;;;;;;;;;3.84;100.00;99952.60;104803;1290;67603;-59
2023/12/12 06:53:20;;;;;;;;;;;;;;;3.84;100.00;99951.06;104832;1288;71193;-57
2023/12/12 06:56:07;;;;;;;;;;;;;;;3.83;100.00;99955.33;104754;1288;62144;-57
2023/12/12 06:58:53;;;;;;;;;;;;;;;3.82;100.00;99960.77;104805;1288;61284;-58
2023/12/12 07:01:39;;;;;;;;;;;;;;;3.82;100.00;99969.64;104782;1288;73275;-59
2023/12/12 07:04:25;;;;;;;;;;;;;;;3.82;100.00;99973.39;104778;1288;68498;-58
2023/12/12 07:07:12;;;;;;;;;;;;;;;3.79;100.00;99975.09;104845;1291;72792;-59
2023/12/12 07:09:58;;;;;;;;;;;;;;;3.79;100.00;99981.41;104874;1288;61310;-57
2023/12/12 07:12:44;;;;;;;;;;;;;;;3.77;100.00;99981.40;104884;1288;61270;-57
2023/12/12 07:15:30;;;;;;;;;;;;;;;3.76;100.00;99984.98;104721;1288;76368;-59
2023/12/12 07:18:17;;;;;;;;;;;;;;;3.75;100.00;99991.63;104857;1288;67289;-58
2023/12/12 07:21:04;;;;;;;;;;;;;;;3.74;100.00;99992.98;104791;1288;71205;-58
2023/12/12 07:23:51;;;;;;;;;;;;;;;3.74;100.00;99992.98;104780;1288;61132;-59
2023/12/12 07:26:38;;;;;;;;;;;;;;;3.75;100.00;99998.61;104793;1292;61060;-58
2023/12/12 07:29:24;;;;;;;;;;;;;;;3.75;100.00;99995.89;104877;1292;73246;-59
2023/12/12 07:32:10;;;;;;;;;;;;;;;3.74;100.00;100002.36;104865;1288;68483;-61
2023/12/12 07:34:56;;;;;;;;;;;;;;;3.74;100.00;100005.60;104833;1288;76887;-59
2023/12/12 07:37:43;;;;;;;;;;;;;;;3.74;100.00;100007.48;104851;1288;61391;-59
2023/12/12 07:40:32;;;;;;;;;;;;;;;3.75;100.00;100014.13;104769;1288;61083;-59
2023/12/12 07:43:19;;;;;;;;;;;;;;;3.77;100.00;100018.90;104840;1292;73160;-59
2023/12/12 07:46:05;;;;;;;;;;;;;;;3.75;100.00;100021.97;104781;1288;71452;-59
2023/12/12 07:48:51;;;;;;;;;;;;;;;3.74;100.00;100027.42;104748;1292;71675;-58
2023/12/12 07:51:38;;;;;;;;;;;;;;;3.73;100.00;100030.48;104799;1293;61044;-58
2023/12/12 07:54:24;;;;;;;;;;;;;;;3.72;100.00;100031.50;104809;1290;61150;-58
2023/12/12 07:57:10;;;;;;;;;;;;;;;3.72;100.00;100031.16;104750;1288;74302;-58
2023/12/12 07:59:57;;;;;;;;;;;;;;;3.72;100.00;100026.91;104814;1288;68379;-58
2023/12/12 08:02:43;;;;;;;;;;;;;;;3.73;100.00;100028.27;106188;1289;71374;-59
2023/12/12 08:05:29;;;;;;;;;;;;;;;3.75;100.00;100030.48;106212;1288;59132;-59
2023/12/12 08:08:15;;;;;;;;;;;;;;;3.75;100.00;100030.83;106214;1289;59403;-60
2023/12/12 08:11:01;;;;;;;;;;;;;;;3.77;100.00;100036.80;106215;1288;74347;-60
2023/12/12 08:13:47;;;;;;;;;;;;;;;3.79;100.00;100037.83;106173;1288;67252;-59
2023/12/12 08:16:33;;;;;;;;;;;;;;;3.81;100.00;100038.17;106163;1288;71205;-59
2023/12/12 08:19:20;;;;;;;;;;;;;;;3.80;100.00;100047.21;106204;1288;59214;-59
2023/12/12 08:22:06;;;;;;;;;;;;;;;3.81;100.00;100050.61;106133;1288;59346;-59
2023/12/12 08:24:53;;;;;;;;;;;;;;;3.83;100.00;100052.67;106182;1289;72938;-59
2023/12/12 08:27:39;;;;;;;;;;;;;;;3.82;100.00;100051.98;106249;1288;68484;-59
2023/12/12 08:30:25;;;;;;;;;;;;;;;3.82;100.00;100053.86;105127;1288;72748;-59
2023/12/12 08:33:11;;;;;;;;;;;;;;;3.84;100.00;100053.87;104762;1290;61164;-59
2023/12/12 08:35:58;;;;;;;;;;;;;;;3.87;100.00;100054.04;104800;1288;62498;-58
2023/12/12 08:38:47;;;;;;;;;;;;;;;3.90;100.00;100048.94;104798;1291;73618;-61
2023/12/12 08:41:37;;;;;;;;;;;;;;;3.90;100.00;100045.17;104830;1288;67334;-58
2023/12/12 08:44:23;;;;;;;;;;;;;;;3.95;100.00;100049.27;104904;1288;72453;-59
2023/12/12 08:47:10;;;;;;;;;;;;;;;3.96;100.00;100051.33;104885;1288;62030;-58
2023/12/12 08:49:59;;;;;;;;;;;;;;;3.96;100.00;100063.45;104861;1288;61577;-59
2023/12/12 08:52:45;;;;;;;;;;;;;;;3.95;100.00;100069.06;104886;1288;73286;-58
2023/12/12 08:55:31;;;;;;;;;;;;;;;3.96;100.00;100065.83;104905;1290;71412;-59
2023/12/12 08:58:17;;;;;;;;;;;;;;;4.00;100.00;100071.64;104876;1288;71352;-58
2023/12/12 09:01:04;;;;;;;;;;;;;;;4.04;100.00;100068.23;104887;1288;61401;-58
2023/12/12 09:03:50;;;;;;;;;;;;;;;4.02;100.00;100070.27;104915;1290;61214;-58
2023/12/12 09:06:37;;;;;;;;;;;;;;;4.01;100.00;100077.44;104841;1289;77349;-58
2023/12/12 09:09:25;;;;;;;;;;;;;;;4.01;100.00;100080.16;104904;1290;67256;-58
2023/12/12 09:12:12;;;;;;;;;;;;;;;4.06;100.00;100081.02;104932;1288;71399;-57
2023/12/12 09:14:58;;;;;;;;;;;;;;;4.12;100.00;100079.16;104713;1288;61247;-59
2023/12/12 09:17:44;;;;;;;;;;;;;;;4.16;100.00;100083.08;104786;1288;61113;-59
2023/12/12 09:20:31;;;;;;;;;;;;;;;4.20;100.00;100086.13;104865;1291;73274;-58
2023/12/12 09:23:17;;;;;;;;;;;;;;;4.21;100.00;100084.43;106179;1287;67703;-60
2023/12/12 09:26:03;;;;;;;;;;;;;;;4.21;100.00;100081.88;106130;1288;73171;-59
2023/12/12 09:28:49;;;;;;;;;;;;;;;4.30;100.00;100083.77;106192;1288;59000;-60
2023/12/12 09:31:35;;;;;;;;;;;;;;;4.34;100.00;100083.25;106188;1289;60673;-59
2023/12/12 09:34:23;;;;;;;;;;;;;;;4.42;100.00;100081.39;106181;1288;73180;-59
2023/12/12 09:37:09;;;;;;;;;;;;;;;4.43;100.00;100083.26;106151;1288;69190;-60
2023/12/12 09:39:55;;;;;;;;;;;;;;;4.49;100.00;100084.27;106141;1289;72315;-60
2023/12/12 09:42:42;;;;;;;;;;;;;;;4.56;100.00;100080.02;106171;1288;59011;-60
2023/12/12 09:45:28;;;;;;;;;;;;;;;4.55;99.60;100072.33;106186;1287;59024;-60
2023/12/12 09:48:14;;;;;;;;;;;;;;;4.57;99.92;100074.73;106146;1288;73276;-60
2023/12/12 09:51:00;;;;;;;;;;;;;;;4.57;99.95;100073.19;105797;1288;67549;-59
2023/12/12 09:53:47;;;;;;;;;;;;;;;4.61;100.00;100071.48;104845;1288;72501;-60
2023/12/12 09:56:36;;;;;;;;;;;;;;;4.66;100.00;100071.83;104834;1288;61279;-59
2023/12/12 09:59:22;;;;;;;;;;;;;;;4.69;100.00;100071.10;104937;1288;61363;-59
2023/12/12 10:02:11;;;;;;;;;;;;;;;4.75;100.00;100068.55;104913;1288;73505;-59
2023/12/12 10:04:59;;;;;;;;;;;;;;;4.80;100.00;100064.77;104868;1292;67312;-59
2023/12/12 10:07:46;;;;;;;;;;;;;;;4.82;99.56;100064.95;105017;1290;72931;-57
2023/12/12 10:10:32;;;;;;;;;;;;;;;4.76;99.40;100065.98;104909;1288;61247;-59
2023/12/12 10:13:19;;;;;;;;;;;;;;;4.78;99.90;100064.61;104880;1288;61177;-59
2023/12/12 10:16:12;;;;;;;;;;;;;;;4.75;99.92;100065.29;104847;1288;73389;-59
2023/12/12 10:19:01;;;;;;;;;;;;;;;4.76;99.97;100065.98;104927;1292;67355;-59
2023/12/12 10:21:48;;;;;;;;;;;;;;;4.78;99.99;100064.44;104842;1293;71261;-59
2023/12/12 10:24:35;;;;;;;;;;;;;;;4.82;100.00;100066.98;104869;1288;61193;-59
2023/12/12 10:27:21;;;;;;;;;;;;;;;4.77;99.56;100066.66;104868;1288;61992;-58
2023/12/12 10:30:08;;;;;;;;;;;;;;;4.74;99.81;100066.66;104891;1287;73228;-58
2023/12/12 10:32:54;;;;;;;;;;;;;;;4.71;99.58;100066.66;104791;1288;69953;-58
2023/12/12 10:35:47;;;;;;;;;;;;;;;4.68;99.69;100067.54;104845;1286;71243;-59
2023/12/12 10:38:35;;;;;;;;;;;;;;;4.66;99.53;100064.14;104884;1288;61264;-58
2023/12/12 10:41:22;;;;;;;;;;;;;;;4.72;100.00;100065.46;104803;1288;61802;-59
2023/12/12 10:44:08;;;;;;;;;;;;;;;4.82;100.00;100069.55;104839;1288;74013;-61
2023/12/12 10:46:55;;;;;;;;;;;;;;;4.81;100.00;100067.16;104856;1289;67699;-58
2023/12/12 10:49:43;;;;;;;;;;;;;;;4.81;99.97;100063.75;104790;1288;75993;-58
2023/12/12 10:52:30;;;;;;;;;;;;;;;4.81;99.73;100061.02;104782;1291;59131;-57
2023/12/12 10:55:19;;;;;;;;;;;;;;;4.79;99.74;100057.10;104832;1288;63260;-59
2023/12/12 10:58:05;;;;;;;;;;;;;;;4.81;99.98;100057.27;106217;1288;74434;-60
2023/12/12 11:00:51;;;;;;;;;;;;;;;4.85;100.00;100058.80;106209;1288;68104;-60
2023/12/12 11:03:38;;;;;;;;;;;;;;;4.97;100.00;100055.86;106155;1289;72434;-60
2023/12/12 11:06:24;;;;;;;;;;;;;;;4.99;99.83;100059.11;105993;1288;268666;-60
2023/12/12 11:09:10;;;;;;;;;;;;;;;4.96;98.73;100060.31;106219;1288;58978;-60
2023/12/12 11:11:57;;;;;;;;;;;;;;;4.93;98.99;100066.13;106289;1287;73464;-60
2023/12/12 11:14:43;;;;;;;;;;;;;;;4.90;98.57;100066.13;106324;1287;68320;-60
2023/12/12 11:17:29;;;;;;;;;;;;;;;4.85;99.13;100068.53;106385;1286;72993;-60
2023/12/12 11:20:16;;;;;;;;;;;;;;;4.81;98.81;100070.75;106357;1287;58745;-61
2023/12/12 11:23:05;;;;;;;;;;;;;;;4.80;98.87;100069.39;105143;1286;59270;-59
2023/12/12 11:25:51;;;;;;;;;;;;;;;4.80;99.01;100069.39;105047;1287;73467;-59
2023/12/12 11:28:37;;;;;;;;;;;;;;;4.83;99.32;100076.89;106349;1287;67426;-60
2023/12/12 11:31:25;;;;;;;;;;;;;;;4.86;99.51;100073.48;106319;1286;71908;-60
2023/12/12 11:34:11;;;;;;;;;;;;;;;4.90;99.66;100077.39;106281;1285;58764;-60
2023/12/12 11:37:00;;;;;;;;;;;;;;;4.91;99.27;100078.94;106381;1286;59861;-60
2023/12/12 11:39:49;;;;;;;;;;;;;;;4.88;98.97;100078.77;106346;1287;73367;-60
2023/12/12 11:42:35;;;;;;;;;;;;;;;4.89;99.42;100079.45;106312;1286;68129;-60
2023/12/12 11:45:31;;;;;;;;;;;;;;;4.87;99.09;100081.16;106325;1286;71384;-60
2023/12/12 11:48:18;;;;;;;;;;;;;;;4.89;99.47;100079.63;106338;1286;58969;-60
2023/12/12 11:51:23;;;;;;;;;;;;;;;4.93;99.60;100076.54;106329;1286;59776;-59
2023/12/12 11:54:17;;;;;;;;;;;;;;;4.98;99.79;100082.69;106286;1287;74199;-60
2023/12/12 11:57:03;;;;;;;;;;;;;;;5.03;99.84;100083.86;106154;1287;68646;-60
2023/12/12 11:59:51;;;;;;;;;;;;;;;5.04;99.59;100090.52;106308;1287;71224;-60
2023/12/12 12:02:37;;;;;;;;;;;;;;;5.01;99.69;100087.64;106264;1287;58954;-62
2023/12/12 12:05:23;;;;;;;;;;;;;;;4.97;99.75;100094.98;106340;1286;60032;-60
2023/12/12 12:08:11;;;;;;;;;;;;;;;4.94;99.88;100095.84;106333;1286;73310;-59
2023/12/12 12:10:57;;;;;;;;;;;;;;;4.92;99.79;100092.26;106388;1286;67535;-60
2023/12/12 12:13:43;;;;;;;;;;;;;;;4.96;100.00;100089.34;106326;1286;72612;-60
2023/12/12 12:16:29;;;;;;;;;;;;;;;5.04;100.00;100083.52;106371;1287;59338;-60
2023/12/12 12:19:44;;;;;;;;;;;;;;;5.09;100.00;100082.48;106376;1286;59085;-60
2023/12/12 12:22:30;;;;;;;;;;;;;;;5.14;100.00;100080.77;106314;1290;73102;-59
2023/12/12 12:25:23;;;;;;;;;;;;;;;5.19;100.00;100077.34;106374;1286;68546;-61
2023/12/12 12:28:09;;;;;;;;;;;;;;;5.25;100.00;100080.20;106362;1286;72355;-60
2023/12/12 12:30:58;;;;;;;;;;;;;;;5.24;100.00;100083.79;105657;1286;61369;-59
2023/12/12 12:33:44;;;;;;;;;;;;;;;5.24;100.00;100079.00;104898;1288;59315;-58
2023/12/12 12:36:37;;;;;;;;;;;;;;;5.19;100.00;100084.33;105025;1286;74301;-60
2023/12/12 12:39:25;;;;;;;;;;;;;;;5.21;100.00;100082.27;104970;1286;67150;-59
2023/12/12 12:42:11;;;;;;;;;;;;;;;5.19;100.00;100083.98;104973;1287;73471;-58
2023/12/12 12:44:57;;;;;;;;;;;;;;;5.14;100.00;100081.11;104996;1287;61482;-59
2023/12/12 12:47:43;;;;;;;;;;;;;;;5.18;100.00;100076.66;104872;1286;61291;-58
2023/12/12 12:50:30;;;;;;;;;;;;;;;5.22;100.00;100079.18;104970;1288;73263;-59
2023/12/12 12:53:16;;;;;;;;;;;;;;;5.21;100.00;100074.57;104961;1289;70057;-59
2023/12/12 12:56:03;;;;;;;;;;;;;;;5.19;100.00;100078.88;104929;1286;72609;-59
2023/12/12 12:58:49;;;;;;;;;;;;;;;5.16;100.00;100077.70;105003;1286;61235;-59
2023/12/12 13:01:36;;;;;;;;;;;;;;;5.16;100.00;100081.61;105027;1288;61174;-58
2023/12/12 13:04:22;;;;;;;;;;;;;;;5.13;100.00;100080.95;104984;1286;73985;-59
2023/12/12 13:07:08;;;;;;;;;;;;;;;5.09;100.00;100084.38;104934;1287;71267;-59
2023/12/12 13:09:55;;;;;;;;;;;;;;;5.06;100.00;100085.74;105045;1288;72214;-59
2023/12/12 13:12:42;;;;;;;;;;;;;;;5.04;100.00;100084.55;105026;1287;59766;-58
2023/12/12 13:15:28;;;;;;;;;;;;;;;5.03;100.00;100080.45;104936;1286;61722;-61
2023/12/12 13:18:15;;;;;;;;;;;;;;;5.00;100.00;100081.31;105028;1286;73208;-59
2023/12/12 13:21:01;;;;;;;;;;;;;;;4.97;100.00;100080.12;105031;1287;70093;-58
2023/12/12 13:23:48;;;;;;;;;;;;;;;4.95;100.00;100082.86;104965;1290;72290;-59
2023/12/12 13:26:34;;;;;;;;;;;;;;;4.93;100.00;100079.79;105012;1286;61149;-60
2023/12/12 13:29:20;;;;;;;;;;;;;;;4.90;100.00;100082.36;104990;1286;61168;-59
2023/12/12 13:32:06;;;;;;;;;;;;;;;4.87;100.00;100080.31;104828;1286;76975;-60
2023/12/12 13:34:54;;;;;;;;;;;;;;;4.86;100.00;100080.14;104987;1286;67369;-59
2023/12/12 13:37:40;;;;;;;;;;;;;;;4.89;100.00;100081.50;104900;1287;71355;-60
2023/12/12 13:40:26;;;;;;;;;;;;;;;4.88;100.00;100080.30;104958;1286;61053;-59
2023/12/12 13:43:12;;;;;;;;;;;;;;;4.85;100.00;100081.16;105028;1286;61296;-59
2023/12/12 13:45:58;;;;;;;;;;;;;;;4.85;100.00;100080.82;104943;1288;76586;-60
2023/12/12 13:48:45;;;;;;;;;;;;;;;4.84;100.00;100084.41;105002;1286;67204;-59
2023/12/12 13:51:31;;;;;;;;;;;;;;;4.86;100.00;100082.01;104962;1286;71197;-60
2023/12/12 13:54:17;;;;;;;;;;;;;;;4.85;100.00;100084.23;104992;1286;61132;-59
2023/12/12 13:57:04;;;;;;;;;;;;;;;4.83;100.00;100083.55;105030;1287;59790;-60
2023/12/12 13:59:50;;;;;;;;;;;;;;;4.80;100.00;100084.08;105011;1286;73222;-59
2023/12/12 14:02:37;;;;;;;;;;;;;;;4.79;100.00;100085.77;104972;1287;69954;-59
2023/12/12 14:05:23;;;;;;;;;;;;;;;4.80;100.00;100087.32;104991;1290;73201;-59
2023/12/12 14:08:09;;;;;;;;;;;;;;;4.78;100.00;100091.24;105024;1287;61198;-58
2023/12/12 14:10:55;;;;;;;;;;;;;;;4.77;100.00;100091.75;105005;1288;63027;-59
2023/12/12 14:13:42;;;;;;;;;;;;;;;4.75;100.00;100090.91;104932;1288;74059;-58